sensor_id;sensor_type;location;lat;lon;timestamp;P1;durP1;ratioP1;P2;durP2;ratioP2
22388;SDS011;11362;48.102;11.620;2024-03-22T00:01:59;4.37;;;2.43;;
22388;SDS011;11362;48.102;11.620;2024-03-22T00:04:25;2.60;;;2.40;;
22388;SDS011;11362;48.102;11.620;2024-03-22T00:06:50;2.63;;;2.43;;
22388;SDS011;11362;48.102;11.620;2024-03-22T00:09:16;3.17;;;2.30;;
22388;SDS011;11362;48.102;11.620;2024-03-22T00:11:42;4.07;;;2.37;;
22388;SDS011;11362;48.102;11.620;2024-03-22T00:14:08;3.77;;;2.93;;
22388;SDS011;11362;48.102;11.620;2024-03-22T00:16:35;2.60;;;2.40;;
22388;SDS011;11362;48.102;11.620;2024-03-22T00:19:01;3.73;;;2.30;;
22388;SDS011;11362;48.102;11.620;2024-03-22T00:21:26;2.90;;;2.60;;
22388;SDS011;11362;48.102;11.620;2024-03-22T00:23:52;2.90;;;2.63;;
22388;SDS011;11362;48.102;11.620;2024-03-22T00:26:17;3.80;;;2.53;;
22388;SDS011;11362;48.102;11.620;2024-03-22T00:28:42;2.90;;;2.13;;
22388;SDS011;11362;48.102;11.620;2024-03-22T00:31:08;2.50;;;2.30;;
22388;SDS011;11362;48.102;11.620;2024-03-22T00:33:34;4.23;;;2.77;;
22388;SDS011;11362;48.102;11.620;2024-03-22T00:35:59;2.53;;;2.10;;
22388;SDS011;11362;48.102;11.620;2024-03-22T00:38:24;3.63;;;2.70;;
22388;SDS011;11362;48.102;11.620;2024-03-22T00:40:50;2.47;;;2.37;;
22388;SDS011;11362;48.102;11.620;2024-03-22T00:43:15;4.07;;;2.40;;
22388;SDS011;11362;48.102;11.620;2024-03-22T00:45:40;3.50;;;2.30;;
22388;SDS011;11362;48.102;11.620;2024-03-22T00:48:06;2.77;;;2.20;;
22388;SDS011;11362;48.102;11.620;2024-03-22T00:50:31;3.17;;;2.33;;
22388;SDS011;11362;48.102;11.620;2024-03-22T00:52:57;2.20;;;2.10;;
22388;SDS011;11362;48.102;11.620;2024-03-22T00:55:22;2.70;;;2.40;;
22388;SDS011;11362;48.102;11.620;2024-03-22T00:57:48;2.43;;;2.23;;
22388;SDS011;11362;48.102;11.620;2024-03-22T01:00:14;2.23;;;2.03;;
22388;SDS011;11362;48.102;11.620;2024-03-22T01:02:40;3.63;;;2.23;;
22388;SDS011;11362;48.102;11.620;2024-03-22T01:05:06;2.10;;;2.00;;
22388;SDS011;11362;48.102;11.620;2024-03-22T01:07:31;2.80;;;2.27;;
22388;SDS011;11362;48.102;11.620;2024-03-22T01:09:57;3.10;;;2.33;;
22388;SDS011;11362;48.102;11.620;2024-03-22T01:12:22;2.33;;;2.23;;
22388;SDS011;11362;48.102;11.620;2024-03-22T01:14:47;4.10;;;2.30;;
22388;SDS011;11362;48.102;11.620;2024-03-22T01:17:12;3.53;;;2.40;;
22388;SDS011;11362;48.102;11.620;2024-03-22T01:19:38;2.27;;;2.17;;
22388;SDS011;11362;48.102;11.620;2024-03-22T01:22:03;3.10;;;2.20;;
22388;SDS011;11362;48.102;11.620;2024-03-22T01:24:28;2.63;;;2.20;;
22388;SDS011;11362;48.102;11.620;2024-03-22T01:26:54;2.07;;;1.80;;
22388;SDS011;11362;48.102;11.620;2024-03-22T01:29:19;7.70;;;2.83;;
22388;SDS011;11362;48.102;11.620;2024-03-22T01:31:44;2.67;;;2.33;;
22388;SDS011;11362;48.102;11.620;2024-03-22T01:34:09;4.70;;;2.40;;
22388;SDS011;11362;48.102;11.620;2024-03-22T01:36:35;1.97;;;1.87;;
22388;SDS011;11362;48.102;11.620;2024-03-22T01:39:00;2.87;;;2.60;;
22388;SDS011;11362;48.102;11.620;2024-03-22T01:41:25;2.50;;;2.30;;
22388;SDS011;11362;48.102;11.620;2024-03-22T01:43:50;2.30;;;2.10;;
22388;SDS011;11362;48.102;11.620;2024-03-22T01:46:16;2.80;;;2.60;;
22388;SDS011;11362;48.102;11.620;2024-03-22T01:48:41;4.50;;;2.10;;
22388;SDS011;11362;48.102;11.620;2024-03-22T01:51:06;2.40;;;2.20;;
22388;SDS011;11362;48.102;11.620;2024-03-22T01:53:34;2.00;;;1.90;;
22388;SDS011;11362;48.102;11.620;2024-03-22T01:55:59;2.57;;;2.37;;
22388;SDS011;11362;48.102;11.620;2024-03-22T01:58:25;3.40;;;2.50;;
22388;SDS011;11362;48.102;11.620;2024-03-22T02:00:50;2.83;;;2.20;;
22388;SDS011;11362;48.102;11.620;2024-03-22T02:03:16;2.43;;;2.23;;
22388;SDS011;11362;48.102;11.620;2024-03-22T02:05:41;2.13;;;2.03;;
22388;SDS011;11362;48.102;11.620;2024-03-22T02:08:06;2.93;;;1.87;;
22388;SDS011;11362;48.102;11.620;2024-03-22T02:10:31;2.43;;;2.20;;
22388;SDS011;11362;48.102;11.620;2024-03-22T02:12:57;4.00;;;2.00;;
22388;SDS011;11362;48.102;11.620;2024-03-22T02:15:22;1.90;;;1.80;;
22388;SDS011;11362;48.102;11.620;2024-03-22T02:17:48;2.60;;;2.40;;
22388;SDS011;11362;48.102;11.620;2024-03-22T02:20:13;2.50;;;2.30;;
22388;SDS011;11362;48.102;11.620;2024-03-22T02:22:38;2.20;;;2.07;;
22388;SDS011;11362;48.102;11.620;2024-03-22T02:25:04;2.10;;;2.00;;
22388;SDS011;11362;48.102;11.620;2024-03-22T02:27:29;2.47;;;2.10;;
22388;SDS011;11362;48.102;11.620;2024-03-22T02:29:55;2.13;;;2.03;;
22388;SDS011;11362;48.102;11.620;2024-03-22T02:32:20;2.50;;;2.30;;
22388;SDS011;11362;48.102;11.620;2024-03-22T02:34:45;2.27;;;2.10;;
22388;SDS011;11362;48.102;11.620;2024-03-22T02:37:11;4.10;;;1.80;;
22388;SDS011;11362;48.102;11.620;2024-03-22T02:39:36;2.20;;;2.10;;
22388;SDS011;11362;48.102;11.620;2024-03-22T02:42:01;2.20;;;2.00;;
22388;SDS011;11362;48.102;11.620;2024-03-22T02:44:26;2.20;;;2.10;;
22388;SDS011;11362;48.102;11.620;2024-03-22T02:46:52;2.87;;;2.43;;
22388;SDS011;11362;48.102;11.620;2024-03-22T02:49:17;2.90;;;1.90;;
22388;SDS011;11362;48.102;11.620;2024-03-22T02:51:42;2.27;;;2.00;;
22388;SDS011;11362;48.102;11.620;2024-03-22T02:54:07;2.30;;;2.17;;
22388;SDS011;11362;48.102;11.620;2024-03-22T02:56:33;2.50;;;2.40;;
22388;SDS011;11362;48.102;11.620;2024-03-22T02:58:58;2.20;;;2.10;;
22388;SDS011;11362;48.102;11.620;2024-03-22T03:01:23;2.07;;;1.90;;
22388;SDS011;11362;48.102;11.620;2024-03-22T03:03:48;2.43;;;2.23;;
22388;SDS011;11362;48.102;11.620;2024-03-22T03:06:14;2.10;;;2.00;;
22388;SDS011;11362;48.102;11.620;2024-03-22T03:08:39;2.27;;;2.17;;
22388;SDS011;11362;48.102;11.620;2024-03-22T03:11:04;2.27;;;2.10;;
22388;SDS011;11362;48.102;11.620;2024-03-22T03:13:30;2.23;;;2.13;;
22388;SDS011;11362;48.102;11.620;2024-03-22T03:15:56;2.40;;;2.20;;
22388;SDS011;11362;48.102;11.620;2024-03-22T03:18:22;2.27;;;2.07;;
22388;SDS011;11362;48.102;11.620;2024-03-22T03:20:47;1.93;;;1.83;;
22388;SDS011;11362;48.102;11.620;2024-03-22T03:23:12;3.07;;;2.30;;
22388;SDS011;11362;48.102;11.620;2024-03-22T03:25:37;2.20;;;2.00;;
22388;SDS011;11362;48.102;11.620;2024-03-22T03:28:03;2.10;;;1.90;;
22388;SDS011;11362;48.102;11.620;2024-03-22T03:30:28;2.10;;;2.00;;
22388;SDS011;11362;48.102;11.620;2024-03-22T03:32:54;2.77;;;2.57;;
22388;SDS011;11362;48.102;11.620;2024-03-22T03:35:19;2.57;;;2.37;;
22388;SDS011;11362;48.102;11.620;2024-03-22T03:37:44;2.47;;;2.20;;
22388;SDS011;11362;48.102;11.620;2024-03-22T03:40:09;2.30;;;2.20;;
22388;SDS011;11362;48.102;11.620;2024-03-22T03:42:35;2.03;;;1.93;;
22388;SDS011;11362;48.102;11.620;2024-03-22T03:45:00;2.40;;;2.30;;
22388;SDS011;11362;48.102;11.620;2024-03-22T03:47:25;2.07;;;1.97;;
22388;SDS011;11362;48.102;11.620;2024-03-22T03:49:51;2.63;;;2.43;;
22388;SDS011;11362;48.102;11.620;2024-03-22T03:52:16;2.00;;;1.90;;
22388;SDS011;11362;48.102;11.620;2024-03-22T03:54:41;1.87;;;1.77;;
22388;SDS011;11362;48.102;11.620;2024-03-22T03:57:07;2.03;;;1.93;;
22388;SDS011;11362;48.102;11.620;2024-03-22T03:59:32;3.97;;;2.13;;
22388;SDS011;11362;48.102;11.620;2024-03-22T04:01:57;2.20;;;2.10;;
22388;SDS011;11362;48.102;11.620;2024-03-22T04:04:22;3.23;;;2.10;;
22388;SDS011;11362;48.102;11.620;2024-03-22T04:06:48;2.43;;;2.23;;
22388;SDS011;11362;48.102;11.620;2024-03-22T04:09:13;2.60;;;2.23;;
22388;SDS011;11362;48.102;11.620;2024-03-22T04:11:38;3.50;;;1.93;;
22388;SDS011;11362;48.102;11.620;2024-03-22T04:14:04;2.10;;;2.00;;
22388;SDS011;11362;48.102;11.620;2024-03-22T04:16:30;2.17;;;2.00;;
22388;SDS011;11362;48.102;11.620;2024-03-22T04:18:55;2.10;;;1.90;;
22388;SDS011;11362;48.102;11.620;2024-03-22T04:21:20;2.17;;;2.00;;
22388;SDS011;11362;48.102;11.620;2024-03-22T04:23:46;2.47;;;1.83;;
22388;SDS011;11362;48.102;11.620;2024-03-22T04:26:11;2.07;;;1.93;;
22388;SDS011;11362;48.102;11.620;2024-03-22T04:28:36;1.80;;;1.70;;
22388;SDS011;11362;48.102;11.620;2024-03-22T04:31:03;2.87;;;2.17;;
22388;SDS011;11362;48.102;11.620;2024-03-22T04:33:29;1.97;;;1.80;;
22388;SDS011;11362;48.102;11.620;2024-03-22T04:35:56;2.23;;;2.13;;
22388;SDS011;11362;48.102;11.620;2024-03-22T04:38:22;1.90;;;1.80;;
22388;SDS011;11362;48.102;11.620;2024-03-22T04:40:48;1.70;;;1.60;;
22388;SDS011;11362;48.102;11.620;2024-03-22T04:43:17;2.10;;;2.00;;
22388;SDS011;11362;48.102;11.620;2024-03-22T04:45:43;2.10;;;2.00;;
22388;SDS011;11362;48.102;11.620;2024-03-22T04:48:08;2.73;;;2.03;;
22388;SDS011;11362;48.102;11.620;2024-03-22T04:50:34;2.20;;;2.10;;
22388;SDS011;11362;48.102;11.620;2024-03-22T04:52:59;2.30;;;2.13;;
22388;SDS011;11362;48.102;11.620;2024-03-22T04:55:24;3.83;;;1.97;;
22388;SDS011;11362;48.102;11.620;2024-03-22T04:57:51;2.60;;;2.40;;
22388;SDS011;11362;48.102;11.620;2024-03-22T05:00:17;2.57;;;2.33;;
22388;SDS011;11362;48.102;11.620;2024-03-22T05:02:42;2.37;;;2.10;;
22388;SDS011;11362;48.102;11.620;2024-03-22T05:05:07;2.93;;;2.40;;
22388;SDS011;11362;48.102;11.620;2024-03-22T05:07:33;6.37;;;2.60;;
22388;SDS011;11362;48.102;11.620;2024-03-22T05:09:58;3.03;;;2.10;;
22388;SDS011;11362;48.102;11.620;2024-03-22T05:12:23;4.93;;;2.73;;
22388;SDS011;11362;48.102;11.620;2024-03-22T05:14:49;4.00;;;1.73;;
22388;SDS011;11362;48.102;11.620;2024-03-22T05:17:14;1.90;;;1.80;;
22388;SDS011;11362;48.102;11.620;2024-03-22T05:19:39;3.13;;;2.13;;
22388;SDS011;11362;48.102;11.620;2024-03-22T05:22:05;2.80;;;2.60;;
22388;SDS011;11362;48.102;11.620;2024-03-22T05:24:30;2.90;;;2.23;;
22388;SDS011;11362;48.102;11.620;2024-03-22T05:26:55;3.47;;;2.17;;
22388;SDS011;11362;48.102;11.620;2024-03-22T05:29:21;5.23;;;2.53;;
22388;SDS011;11362;48.102;11.620;2024-03-22T05:31:47;2.57;;;2.37;;
22388;SDS011;11362;48.102;11.620;2024-03-22T05:34:13;4.43;;;2.37;;
22388;SDS011;11362;48.102;11.620;2024-03-22T05:36:38;2.70;;;2.43;;
22388;SDS011;11362;48.102;11.620;2024-03-22T05:39:04;2.90;;;2.43;;
22388;SDS011;11362;48.102;11.620;2024-03-22T05:41:29;3.17;;;2.53;;
22388;SDS011;11362;48.102;11.620;2024-03-22T05:43:54;2.33;;;2.13;;
22388;SDS011;11362;48.102;11.620;2024-03-22T05:46:19;2.63;;;2.17;;
22388;SDS011;11362;48.102;11.620;2024-03-22T05:48:45;4.27;;;2.60;;
22388;SDS011;11362;48.102;11.620;2024-03-22T05:51:10;3.43;;;2.40;;
22388;SDS011;11362;48.102;11.620;2024-03-22T05:53:35;5.17;;;2.40;;
22388;SDS011;11362;48.102;11.620;2024-03-22T05:56:01;2.70;;;2.27;;
22388;SDS011;11362;48.102;11.620;2024-03-22T05:58:26;8.00;;;2.73;;
22388;SDS011;11362;48.102;11.620;2024-03-22T06:00:51;2.80;;;2.50;;
22388;SDS011;11362;48.102;11.620;2024-03-22T06:03:16;4.90;;;2.70;;
22388;SDS011;11362;48.102;11.620;2024-03-22T06:05:41;5.03;;;3.10;;
22388;SDS011;11362;48.102;11.620;2024-03-22T06:08:07;4.83;;;2.60;;
22388;SDS011;11362;48.102;11.620;2024-03-22T06:10:32;6.77;;;2.47;;
22388;SDS011;11362;48.102;11.620;2024-03-22T06:12:57;8.37;;;3.00;;
22388;SDS011;11362;48.102;11.620;2024-03-22T06:15:23;12.07;;;2.77;;
22388;SDS011;11362;48.102;11.620;2024-03-22T06:17:48;6.90;;;2.87;;
22388;SDS011;11362;48.102;11.620;2024-03-22T06:20:13;5.30;;;2.63;;
22388;SDS011;11362;48.102;11.620;2024-03-22T06:22:38;9.73;;;3.23;;
22388;SDS011;11362;48.102;11.620;2024-03-22T06:25:04;8.23;;;3.17;;
22388;SDS011;11362;48.102;11.620;2024-03-22T06:27:29;5.50;;;2.80;;
22388;SDS011;11362;48.102;11.620;2024-03-22T06:29:55;10.87;;;2.70;;
22388;SDS011;11362;48.102;11.620;2024-03-22T06:32:20;2.97;;;2.43;;
22388;SDS011;11362;48.102;11.620;2024-03-22T06:34:45;9.57;;;3.00;;
22388;SDS011;11362;48.102;11.620;2024-03-22T06:37:10;4.57;;;2.60;;
22388;SDS011;11362;48.102;11.620;2024-03-22T06:39:36;7.43;;;3.07;;
22388;SDS011;11362;48.102;11.620;2024-03-22T06:42:01;5.57;;;2.57;;
22388;SDS011;11362;48.102;11.620;2024-03-22T06:44:26;17.00;;;3.80;;
22388;SDS011;11362;48.102;11.620;2024-03-22T06:46:52;8.53;;;3.10;;
22388;SDS011;11362;48.102;11.620;2024-03-22T06:49:17;8.37;;;2.70;;
22388;SDS011;11362;48.102;11.620;2024-03-22T06:51:42;14.03;;;3.30;;
22388;SDS011;11362;48.102;11.620;2024-03-22T06:54:07;10.57;;;3.40;;
22388;SDS011;11362;48.102;11.620;2024-03-22T06:56:33;9.13;;;3.67;;
22388;SDS011;11362;48.102;11.620;2024-03-22T06:58:58;8.30;;;4.00;;
22388;SDS011;11362;48.102;11.620;2024-03-22T07:01:23;15.37;;;3.77;;
22388;SDS011;11362;48.102;11.620;2024-03-22T07:03:49;11.97;;;3.40;;
22388;SDS011;11362;48.102;11.620;2024-03-22T07:06:14;10.63;;;3.37;;
22388;SDS011;11362;48.102;11.620;2024-03-22T07:08:40;10.90;;;3.93;;
22388;SDS011;11362;48.102;11.620;2024-03-22T07:11:05;11.60;;;3.67;;
22388;SDS011;11362;48.102;11.620;2024-03-22T07:13:31;11.40;;;3.83;;
22388;SDS011;11362;48.102;11.620;2024-03-22T07:15:56;12.30;;;4.10;;
22388;SDS011;11362;48.102;11.620;2024-03-22T07:18:22;7.87;;;3.80;;
22388;SDS011;11362;48.102;11.620;2024-03-22T07:20:47;11.47;;;4.57;;
22388;SDS011;11362;48.102;11.620;2024-03-22T07:23:12;15.77;;;3.97;;
22388;SDS011;11362;48.102;11.620;2024-03-22T07:25:38;12.37;;;4.17;;
22388;SDS011;11362;48.102;11.620;2024-03-22T07:28:03;10.13;;;4.07;;
22388;SDS011;11362;48.102;11.620;2024-03-22T07:30:28;8.43;;;3.23;;
22388;SDS011;11362;48.102;11.620;2024-03-22T07:32:54;15.70;;;4.50;;
22388;SDS011;11362;48.102;11.620;2024-03-22T07:35:19;10.50;;;4.03;;
22388;SDS011;11362;48.102;11.620;2024-03-22T07:37:44;9.60;;;3.93;;
22388;SDS011;11362;48.102;11.620;2024-03-22T07:40:09;13.50;;;4.37;;
22388;SDS011;11362;48.102;11.620;2024-03-22T07:42:35;7.10;;;3.60;;
22388;SDS011;11362;48.102;11.620;2024-03-22T07:45:00;11.97;;;4.13;;
22388;SDS011;11362;48.102;11.620;2024-03-22T07:47:26;13.90;;;4.23;;
22388;SDS011;11362;48.102;11.620;2024-03-22T07:49:51;14.63;;;3.67;;
22388;SDS011;11362;48.102;11.620;2024-03-22T07:52:16;11.87;;;4.03;;
22388;SDS011;11362;48.102;11.620;2024-03-22T07:54:42;5.97;;;4.00;;
22388;SDS011;11362;48.102;11.620;2024-03-22T07:57:07;14.23;;;4.20;;
22388;SDS011;11362;48.102;11.620;2024-03-22T07:59:32;13.90;;;3.87;;
22388;SDS011;11362;48.102;11.620;2024-03-22T08:01:57;9.67;;;3.43;;
22388;SDS011;11362;48.102;11.620;2024-03-22T08:04:23;6.27;;;3.47;;
22388;SDS011;11362;48.102;11.620;2024-03-22T08:06:50;9.97;;;3.80;;
22388;SDS011;11362;48.102;11.620;2024-03-22T08:09:15;12.37;;;4.00;;
22388;SDS011;11362;48.102;11.620;2024-03-22T08:11:40;10.10;;;3.63;;
22388;SDS011;11362;48.102;11.620;2024-03-22T08:14:06;7.17;;;3.20;;
22388;SDS011;11362;48.102;11.620;2024-03-22T08:16:31;8.80;;;3.40;;
22388;SDS011;11362;48.102;11.620;2024-03-22T08:18:56;9.73;;;3.70;;
22388;SDS011;11362;48.102;11.620;2024-03-22T08:21:22;9.47;;;3.53;;
22388;SDS011;11362;48.102;11.620;2024-03-22T08:23:48;9.37;;;4.97;;
22388;SDS011;11362;48.102;11.620;2024-03-22T08:26:14;22.70;;;7.00;;
22388;SDS011;11362;48.102;11.620;2024-03-22T08:28:39;11.67;;;5.70;;
22388;SDS011;11362;48.102;11.620;2024-03-22T08:31:05;9.47;;;5.57;;
22388;SDS011;11362;48.102;11.620;2024-03-22T08:33:30;13.13;;;5.23;;
22388;SDS011;11362;48.102;11.620;2024-03-22T08:35:55;11.87;;;5.20;;
22388;SDS011;11362;48.102;11.620;2024-03-22T08:38:21;7.43;;;4.30;;
22388;SDS011;11362;48.102;11.620;2024-03-22T08:40:46;9.00;;;4.83;;
22388;SDS011;11362;48.102;11.620;2024-03-22T08:43:12;11.77;;;5.27;;
22388;SDS011;11362;48.102;11.620;2024-03-22T08:45:37;8.07;;;4.97;;
22388;SDS011;11362;48.102;11.620;2024-03-22T08:48:02;8.67;;;4.50;;
22388;SDS011;11362;48.102;11.620;2024-03-22T08:50:28;10.23;;;4.70;;
22388;SDS011;11362;48.102;11.620;2024-03-22T08:52:53;9.43;;;4.73;;
22388;SDS011;11362;48.102;11.620;2024-03-22T08:55:19;9.17;;;4.23;;
22388;SDS011;11362;48.102;11.620;2024-03-22T08:57:44;9.83;;;3.93;;
22388;SDS011;11362;48.102;11.620;2024-03-22T09:00:09;6.57;;;3.80;;
22388;SDS011;11362;48.102;11.620;2024-03-22T09:02:35;6.70;;;4.07;;
22388;SDS011;11362;48.102;11.620;2024-03-22T09:05:00;5.37;;;3.97;;
22388;SDS011;11362;48.102;11.620;2024-03-22T09:07:26;6.10;;;3.73;;
22388;SDS011;11362;48.102;11.620;2024-03-22T09:09:51;6.40;;;3.53;;
22388;SDS011;11362;48.102;11.620;2024-03-22T09:12:16;6.87;;;4.10;;
22388;SDS011;11362;48.102;11.620;2024-03-22T09:14:42;6.80;;;3.60;;
22388;SDS011;11362;48.102;11.620;2024-03-22T09:17:07;5.70;;;3.40;;
22388;SDS011;11362;48.102;11.620;2024-03-22T09:19:32;6.73;;;4.03;;
22388;SDS011;11362;48.102;11.620;2024-03-22T09:21:58;7.67;;;3.73;;
22388;SDS011;11362;48.102;11.620;2024-03-22T09:24:23;9.07;;;3.93;;
22388;SDS011;11362;48.102;11.620;2024-03-22T09:26:48;7.60;;;3.60;;
22388;SDS011;11362;48.102;11.620;2024-03-22T09:29:13;5.93;;;3.47;;
22388;SDS011;11362;48.102;11.620;2024-03-22T09:31:39;7.50;;;3.57;;
22388;SDS011;11362;48.102;11.620;2024-03-22T09:34:04;6.27;;;3.03;;
22388;SDS011;11362;48.102;11.620;2024-03-22T09:36:29;4.43;;;3.40;;
22388;SDS011;11362;48.102;11.620;2024-03-22T09:38:54;7.80;;;3.10;;
22388;SDS011;11362;48.102;11.620;2024-03-22T09:41:24;5.87;;;3.30;;
22388;SDS011;11362;48.102;11.620;2024-03-22T09:43:51;3.60;;;3.17;;
22388;SDS011;11362;48.102;11.620;2024-03-22T09:46:18;4.60;;;2.90;;
22388;SDS011;11362;48.102;11.620;2024-03-22T09:48:44;4.57;;;2.90;;
22388;SDS011;11362;48.102;11.620;2024-03-22T09:51:11;6.13;;;3.17;;
22388;SDS011;11362;48.102;11.620;2024-03-22T09:53:37;3.53;;;3.13;;
22388;SDS011;11362;48.102;11.620;2024-03-22T09:56:04;4.57;;;3.10;;
22388;SDS011;11362;48.102;11.620;2024-03-22T09:58:30;7.27;;;3.40;;
22388;SDS011;11362;48.102;11.620;2024-03-22T10:00:56;6.40;;;2.97;;
22388;SDS011;11362;48.102;11.620;2024-03-22T10:03:21;5.27;;;3.47;;
22388;SDS011;11362;48.102;11.620;2024-03-22T10:05:46;6.87;;;3.30;;
22388;SDS011;11362;48.102;11.620;2024-03-22T10:08:11;9.13;;;3.10;;
22388;SDS011;11362;48.102;11.620;2024-03-22T10:10:37;9.97;;;3.60;;
22388;SDS011;11362;48.102;11.620;2024-03-22T10:13:03;7.47;;;3.67;;
22388;SDS011;11362;48.102;11.620;2024-03-22T10:15:28;5.87;;;3.20;;
22388;SDS011;11362;48.102;11.620;2024-03-22T10:17:53;6.50;;;3.03;;
22388;SDS011;11362;48.102;11.620;2024-03-22T10:20:19;6.63;;;3.43;;
22388;SDS011;11362;48.102;11.620;2024-03-22T10:22:48;7.73;;;3.10;;
22388;SDS011;11362;48.102;11.620;2024-03-22T10:25:14;7.77;;;3.57;;
22388;SDS011;11362;48.102;11.620;2024-03-22T10:27:39;8.10;;;3.47;;
22388;SDS011;11362;48.102;11.620;2024-03-22T10:30:08;6.13;;;3.23;;
22388;SDS011;11362;48.102;11.620;2024-03-22T10:32:37;6.87;;;3.17;;
22388;SDS011;11362;48.102;11.620;2024-03-22T10:35:03;6.33;;;3.23;;
22388;SDS011;11362;48.102;11.620;2024-03-22T10:37:28;6.53;;;2.70;;
22388;SDS011;11362;48.102;11.620;2024-03-22T10:39:55;7.20;;;3.27;;
22388;SDS011;11362;48.102;11.620;2024-03-22T10:42:23;6.27;;;3.53;;
22388;SDS011;11362;48.102;11.620;2024-03-22T10:44:48;6.93;;;3.10;;
22388;SDS011;11362;48.102;11.620;2024-03-22T10:47:14;8.10;;;3.50;;
22388;SDS011;11362;48.102;11.620;2024-03-22T10:49:43;6.13;;;3.37;;
22388;SDS011;11362;48.102;11.620;2024-03-22T10:52:12;8.80;;;3.60;;
22388;SDS011;11362;48.102;11.620;2024-03-22T10:54:39;7.07;;;4.20;;
22388;SDS011;11362;48.102;11.620;2024-03-22T10:57:11;11.13;;;4.17;;
22388;SDS011;11362;48.102;11.620;2024-03-22T10:59:40;9.47;;;3.83;;
22388;SDS011;11362;48.102;11.620;2024-03-22T11:02:06;13.90;;;3.80;;
22388;SDS011;11362;48.102;11.620;2024-03-22T11:04:35;7.83;;;3.80;;
22388;SDS011;11362;48.102;11.620;2024-03-22T11:07:01;6.43;;;4.03;;
22388;SDS011;11362;48.102;11.620;2024-03-22T11:09:26;7.07;;;3.70;;
22388;SDS011;11362;48.102;11.620;2024-03-22T11:11:52;9.03;;;4.07;;
22388;SDS011;11362;48.102;11.620;2024-03-22T11:14:18;7.00;;;3.63;;
22388;SDS011;11362;48.102;11.620;2024-03-22T11:16:44;9.57;;;3.70;;
22388;SDS011;11362;48.102;11.620;2024-03-22T11:19:10;6.23;;;3.13;;
22388;SDS011;11362;48.102;11.620;2024-03-22T11:21:35;6.93;;;3.37;;
22388;SDS011;11362;48.102;11.620;2024-03-22T11:24:00;3.93;;;3.47;;
22388;SDS011;11362;48.102;11.620;2024-03-22T11:26:26;6.23;;;3.53;;
22388;SDS011;11362;48.102;11.620;2024-03-22T11:28:51;8.67;;;3.73;;
22388;SDS011;11362;48.102;11.620;2024-03-22T11:31:16;8.70;;;3.30;;
22388;SDS011;11362;48.102;11.620;2024-03-22T11:33:43;7.23;;;3.60;;
22388;SDS011;11362;48.102;11.620;2024-03-22T11:36:09;8.83;;;3.60;;
22388;SDS011;11362;48.102;11.620;2024-03-22T11:38:34;10.23;;;3.00;;
22388;SDS011;11362;48.102;11.620;2024-03-22T11:41:00;6.27;;;3.43;;
22388;SDS011;11362;48.102;11.620;2024-03-22T11:43:28;7.70;;;3.70;;
22388;SDS011;11362;48.102;11.620;2024-03-22T11:45:54;8.33;;;3.70;;
22388;SDS011;11362;48.102;11.620;2024-03-22T11:48:20;9.80;;;3.93;;
22388;SDS011;11362;48.102;11.620;2024-03-22T11:50:46;9.37;;;3.53;;
22388;SDS011;11362;48.102;11.620;2024-03-22T11:53:11;6.23;;;3.80;;
22388;SDS011;11362;48.102;11.620;2024-03-22T11:55:37;5.20;;;3.37;;
22388;SDS011;11362;48.102;11.620;2024-03-22T11:58:02;6.50;;;3.17;;
22388;SDS011;11362;48.102;11.620;2024-03-22T12:00:27;7.00;;;3.30;;
22388;SDS011;11362;48.102;11.620;2024-03-22T12:02:53;6.20;;;3.53;;
22388;SDS011;11362;48.102;11.620;2024-03-22T12:05:19;6.43;;;3.97;;
22388;SDS011;11362;48.102;11.620;2024-03-22T12:07:45;4.47;;;3.37;;
22388;SDS011;11362;48.102;11.620;2024-03-22T12:10:11;8.60;;;4.07;;
22388;SDS011;11362;48.102;11.620;2024-03-22T12:12:36;5.93;;;3.10;;
22388;SDS011;11362;48.102;11.620;2024-03-22T12:15:01;5.70;;;3.13;;
22388;SDS011;11362;48.102;11.620;2024-03-22T12:17:27;8.10;;;3.40;;
22388;SDS011;11362;48.102;11.620;2024-03-22T12:19:52;9.50;;;3.80;;
22388;SDS011;11362;48.102;11.620;2024-03-22T12:22:18;6.17;;;2.93;;
22388;SDS011;11362;48.102;11.620;2024-03-22T12:24:43;4.37;;;3.00;;
22388;SDS011;11362;48.102;11.620;2024-03-22T12:27:08;7.37;;;3.60;;
22388;SDS011;11362;48.102;11.620;2024-03-22T12:29:34;10.53;;;5.13;;
22388;SDS011;11362;48.102;11.620;2024-03-22T12:31:59;5.80;;;4.97;;
22388;SDS011;11362;48.102;11.620;2024-03-22T12:34:25;6.90;;;5.90;;
22388;SDS011;11362;48.102;11.620;2024-03-22T12:36:50;6.77;;;6.07;;
22388;SDS011;11362;48.102;11.620;2024-03-22T12:39:15;7.73;;;6.20;;
22388;SDS011;11362;48.102;11.620;2024-03-22T12:41:41;11.07;;;5.77;;
22388;SDS011;11362;48.102;11.620;2024-03-22T12:44:06;7.80;;;5.80;;
22388;SDS011;11362;48.102;11.620;2024-03-22T12:46:31;6.67;;;5.40;;
22388;SDS011;11362;48.102;11.620;2024-03-22T12:48:57;6.03;;;5.13;;
22388;SDS011;11362;48.102;11.620;2024-03-22T12:51:22;5.73;;;5.13;;
22388;SDS011;11362;48.102;11.620;2024-03-22T12:53:47;9.43;;;5.27;;
22388;SDS011;11362;48.102;11.620;2024-03-22T12:56:13;6.23;;;5.20;;
22388;SDS011;11362;48.102;11.620;2024-03-22T12:58:38;7.37;;;4.67;;
22388;SDS011;11362;48.102;11.620;2024-03-22T13:01:06;5.13;;;4.70;;
22388;SDS011;11362;48.102;11.620;2024-03-22T13:03:33;6.17;;;4.67;;
22388;SDS011;11362;48.102;11.620;2024-03-22T13:05:58;4.70;;;4.30;;
22388;SDS011;11362;48.102;11.620;2024-03-22T13:08:23;6.33;;;4.43;;
22388;SDS011;11362;48.102;11.620;2024-03-22T13:10:49;6.83;;;4.37;;
22388;SDS011;11362;48.102;11.620;2024-03-22T13:13:14;5.77;;;4.60;;
22388;SDS011;11362;48.102;11.620;2024-03-22T13:15:39;4.93;;;4.40;;
22388;SDS011;11362;48.102;11.620;2024-03-22T13:18:05;5.00;;;4.30;;
22388;SDS011;11362;48.102;11.620;2024-03-22T13:20:30;4.87;;;4.37;;
22388;SDS011;11362;48.102;11.620;2024-03-22T13:22:56;5.80;;;4.23;;
22388;SDS011;11362;48.102;11.620;2024-03-22T13:25:21;6.93;;;4.27;;
22388;SDS011;11362;48.102;11.620;2024-03-22T13:27:46;4.60;;;4.20;;
22388;SDS011;11362;48.102;11.620;2024-03-22T13:30:12;4.40;;;4.00;;
22388;SDS011;11362;48.102;11.620;2024-03-22T13:32:38;4.90;;;3.90;;
22388;SDS011;11362;48.102;11.620;2024-03-22T13:35:04;3.67;;;3.27;;
22388;SDS011;11362;48.102;11.620;2024-03-22T13:37:30;3.93;;;3.63;;
22388;SDS011;11362;48.102;11.620;2024-03-22T13:39:55;4.60;;;3.67;;
22388;SDS011;11362;48.102;11.620;2024-03-22T13:42:21;4.50;;;3.47;;
22388;SDS011;11362;48.102;11.620;2024-03-22T13:44:46;3.57;;;3.27;;
22388;SDS011;11362;48.102;11.620;2024-03-22T13:47:11;3.53;;;3.23;;
22388;SDS011;11362;48.102;11.620;2024-03-22T13:49:36;3.63;;;3.10;;
22388;SDS011;11362;48.102;11.620;2024-03-22T13:52:02;3.40;;;3.10;;
22388;SDS011;11362;48.102;11.620;2024-03-22T13:54:27;3.53;;;3.10;;
22388;SDS011;11362;48.102;11.620;2024-03-22T13:56:53;2.93;;;2.60;;
22388;SDS011;11362;48.102;11.620;2024-03-22T13:59:18;3.93;;;2.90;;
22388;SDS011;11362;48.102;11.620;2024-03-22T14:01:43;4.90;;;3.10;;
22388;SDS011;11362;48.102;11.620;2024-03-22T14:04:09;3.33;;;3.03;;
22388;SDS011;11362;48.102;11.620;2024-03-22T14:06:35;2.80;;;2.57;;
22388;SDS011;11362;48.102;11.620;2024-03-22T14:09:02;4.13;;;2.90;;
22388;SDS011;11362;48.102;11.620;2024-03-22T14:11:27;3.20;;;2.90;;
22388;SDS011;11362;48.102;11.620;2024-03-22T14:13:53;3.67;;;2.67;;
22388;SDS011;11362;48.102;11.620;2024-03-22T14:16:18;3.43;;;2.70;;
22388;SDS011;11362;48.102;11.620;2024-03-22T14:18:44;3.07;;;2.83;;
22388;SDS011;11362;48.102;11.620;2024-03-22T14:21:09;3.07;;;2.70;;
22388;SDS011;11362;48.102;11.620;2024-03-22T14:23:34;2.80;;;2.60;;